Naples, FL (34119)

4:14 PM EDT on August 01, 2015 (GMT -0400)
Golden Gate Estates | | Change Station
CLOSE
Current Station
Personal Weather Station
Location: Naples, FL
Elevation: 15 ft
Nearby Weather Stations

Elev 15 ft 26.25 °N, 81.71 °W | Updated 47 seconds ago

Mostly Cloudy
Mostly Cloudy
88.2 °F
Feels Like 89 °F
N
0.0
Wind Variable Wind from North
Gusts 0.0 mph

Today
High -- | Low -- °F
--% Chance of Precip.
Yesterday
High -- | Low -- °F
Precip. -- in
6:52 AM 8:13 PM
Full, 97% visible
Pressure 29.96 in
Visibility 9.0 miles
Clouds Clear
Heat Index 89 °F
Dew Point 62 °F
Humidity 42%
Rainfall 0.00 in
Snow Depth Not available.
UV 11 out of 12
Pollen 3.10 out of 12
Air Quality Not available.
Flu Activity Not available.
METAR KAPF 011953Z 21010KT 9SM CLR 32/26 A2996 RMK AO2 SLP143 T03220256 $

More Conditions Fewer Conditions

Pressure 29.96 in
Visibility 9.0 miles
Clouds Clear
Heat Index 89 °F
Dew Point 62 °F
Humidity 42%
Rainfall 0.00 in
Snow Depth Not available.
UV 11 out of 12
Pollen 3.10 out of 12
Air Quality Not available.
Flu Activity Not available.
METAR KAPF 011953Z 21010KT 9SM CLR 32/26 A2996 RMK AO2 SLP143 T03220256 $

More Conditions Fewer Conditions

Nowcast | as of 3:49 PM EDT on August 1, 2015

Showers and thunderstorms will be concentrated over The Everglades and Lake Okeechobee areas this afternoon into the early evening. Movement of the showers and thunderstorms is to the north- northeast and some of these storms will affect Metro Palm Beach County and the beaches late this afternoon. Some of these storms are capable of producing very heavy rainfall leading to flooding, gusty winds in excess of 35 mph, frequent lightning and even small hail. Elsewhere across the area, mostly dry conditions are expected along the Collier County coast the remainder of the afternoon. Over the Miami and Fort Lauderdale Metro area and beaches, mainly dry conditions are also expected although a few showers are not out of the question.

×

10-Day Weather Forecast

×

Almanac

Astronomy

Aug. 01, 2015 Rise Set
Actual Time
Civil Twilight
Nautical Twilight
Astronomical Twilight
Moon
Length of Visible Light
Length of Day
Tomorrow will be .
, % of the Moon is Illuminated

Today's Extremes

State Highs State Lows

Community

WunderPhotos

Upload Photos

1,843,048 photos uploaded!

WunderBlogs® & News

Nearby

Air Quality

  Air Quality AQ Index Pollutant
Not available.

Snow Depth

Station Depth Elevation

Earthquake Activity

City Distance Mag. Time & Date
Minimum magnitude displayed is 2.5.

Coastal Water Temperatures

Place Temperature

Stations

Nearby Weather Stations

Station Location Temp. Windchill Dew Point Humidity Wind Precip. Elev Updated Type